sensor_id;sensor_type;location;lat;lon;timestamp;P1;durP1;ratioP1;P2;durP2;ratioP2
77168;SDS011;66281;45.114;20.730;2024-03-23T00:55:31;34.70;;;18.35;;
77168;SDS011;66281;45.114;20.730;2024-03-23T01:05:32;29.40;;;16.63;;
77168;SDS011;66281;45.114;20.730;2024-03-23T01:15:33;35.13;;;17.10;;
77168;SDS011;66281;45.114;20.730;2024-03-23T01:25:35;61.70;;;23.60;;
77168;SDS011;66281;45.114;20.730;2024-03-23T01:35:36;51.97;;;21.55;;
77168;SDS011;66281;45.114;20.730;2024-03-23T01:45:38;42.27;;;20.00;;
77168;SDS011;66281;45.114;20.730;2024-03-23T01:55:40;40.43;;;21.73;;
77168;SDS011;66281;45.114;20.730;2024-03-23T02:05:41;44.53;;;21.73;;
77168;SDS011;66281;45.114;20.730;2024-03-23T02:15:42;43.47;;;23.77;;
77168;SDS011;66281;45.114;20.730;2024-03-23T02:25:45;46.77;;;25.30;;
77168;SDS011;66281;45.114;20.730;2024-03-23T02:35:46;45.70;;;25.55;;
77168;SDS011;66281;45.114;20.730;2024-03-23T02:45:48;47.87;;;25.07;;
77168;SDS011;66281;45.114;20.730;2024-03-23T02:55:49;44.80;;;24.40;;
77168;SDS011;66281;45.114;20.730;2024-03-23T03:05:56;43.97;;;24.27;;
77168;SDS011;66281;45.114;20.730;2024-03-23T03:15:58;39.65;;;21.10;;
77168;SDS011;66281;45.114;20.730;2024-03-23T03:25:59;40.97;;;20.80;;
77168;SDS011;66281;45.114;20.730;2024-03-23T03:36:00;34.60;;;18.93;;
77168;SDS011;66281;45.114;20.730;2024-03-23T03:46:02;39.53;;;19.63;;
77168;SDS011;66281;45.114;20.730;2024-03-23T03:56:03;33.50;;;17.67;;
77168;SDS011;66281;45.114;20.730;2024-03-23T04:06:05;35.30;;;18.43;;
77168;SDS011;66281;45.114;20.730;2024-03-23T04:16:06;28.33;;;17.40;;
77168;SDS011;66281;45.114;20.730;2024-03-23T04:26:07;31.87;;;16.67;;
77168;SDS011;66281;45.114;20.730;2024-03-23T04:36:08;33.57;;;17.27;;
77168;SDS011;66281;45.114;20.730;2024-03-23T04:46:10;29.37;;;16.20;;
77168;SDS011;66281;45.114;20.730;2024-03-23T04:56:12;31.25;;;15.48;;
77168;SDS011;66281;45.114;20.730;2024-03-23T05:06:13;29.87;;;15.37;;
77168;SDS011;66281;45.114;20.730;2024-03-23T05:16:14;33.13;;;16.40;;
77168;SDS011;66281;45.114;20.730;2024-03-23T05:26:15;27.88;;;15.25;;
77168;SDS011;66281;45.114;20.730;2024-03-23T05:36:17;23.90;;;13.97;;
77168;SDS011;66281;45.114;20.730;2024-03-23T05:46:18;30.27;;;15.73;;
77168;SDS011;66281;45.114;20.730;2024-03-23T05:56:19;26.65;;;13.55;;
77168;SDS011;66281;45.114;20.730;2024-03-23T06:06:21;23.73;;;12.17;;
77168;SDS011;66281;45.114;20.730;2024-03-23T06:16:22;21.10;;;13.03;;
77168;SDS011;66281;45.114;20.730;2024-03-23T06:26:27;21.23;;;11.47;;
77168;SDS011;66281;45.114;20.730;2024-03-23T06:36:29;20.25;;;11.07;;
77168;SDS011;66281;45.114;20.730;2024-03-23T06:46:32;27.70;;;12.97;;
77168;SDS011;66281;45.114;20.730;2024-03-23T06:56:33;29.13;;;13.73;;
77168;SDS011;66281;45.114;20.730;2024-03-23T07:06:41;37.92;;;18.75;;
77168;SDS011;66281;45.114;20.730;2024-03-23T07:16:43;40.60;;;18.13;;
77168;SDS011;66281;45.114;20.730;2024-03-23T07:26:45;22.67;;;12.37;;
77168;SDS011;66281;45.114;20.730;2024-03-23T07:36:46;18.25;;;11.48;;
77168;SDS011;66281;45.114;20.730;2024-03-23T07:46:48;20.40;;;10.90;;
77168;SDS011;66281;45.114;20.730;2024-03-23T07:56:49;18.50;;;11.87;;
77168;SDS011;66281;45.114;20.730;2024-03-23T08:06:50;14.40;;;9.07;;
77168;SDS011;66281;45.114;20.730;2024-03-23T08:16:51;16.67;;;10.40;;
77168;SDS011;66281;45.114;20.730;2024-03-23T08:26:54;18.60;;;10.73;;
77168;SDS011;66281;45.114;20.730;2024-03-23T08:36:55;17.33;;;9.47;;
77168;SDS011;66281;45.114;20.730;2024-03-23T08:46:56;17.33;;;10.45;;
77168;SDS011;66281;45.114;20.730;2024-03-23T08:56:58;17.70;;;9.20;;
77168;SDS011;66281;45.114;20.730;2024-03-23T09:06:59;22.83;;;9.43;;
77168;SDS011;66281;45.114;20.730;2024-03-23T09:17:01;14.98;;;9.13;;
77168;SDS011;66281;45.114;20.730;2024-03-23T09:27:02;16.20;;;9.87;;
77168;SDS011;66281;45.114;20.730;2024-03-23T09:37:04;22.00;;;12.53;;
77168;SDS011;66281;45.114;20.730;2024-03-23T09:47:06;17.13;;;10.23;;
77168;SDS011;66281;45.114;20.730;2024-03-23T09:57:08;17.17;;;9.13;;
77168;SDS011;66281;45.114;20.730;2024-03-23T10:07:13;13.70;;;8.60;;
77168;SDS011;66281;45.114;20.730;2024-03-23T10:27:21;12.27;;;6.47;;
77168;SDS011;66281;45.114;20.730;2024-03-23T10:37:22;7.77;;;5.93;;
77168;SDS011;66281;45.114;20.730;2024-03-23T10:47:24;9.40;;;6.53;;
77168;SDS011;66281;45.114;20.730;2024-03-23T10:57:34;9.43;;;6.25;;
77168;SDS011;66281;45.114;20.730;2024-03-23T11:07:37;12.47;;;6.90;;
77168;SDS011;66281;45.114;20.730;2024-03-23T11:17:39;10.70;;;6.53;;
77168;SDS011;66281;45.114;20.730;2024-03-23T11:27:40;8.63;;;5.63;;
77168;SDS011;66281;45.114;20.730;2024-03-23T11:37:42;6.73;;;4.93;;
77168;SDS011;66281;45.114;20.730;2024-03-23T11:47:43;5.97;;;4.63;;
77168;SDS011;66281;45.114;20.730;2024-03-23T11:57:44;7.05;;;5.45;;
77168;SDS011;66281;45.114;20.730;2024-03-23T12:07:45;5.97;;;4.70;;
77168;SDS011;66281;45.114;20.730;2024-03-23T12:17:47;6.73;;;4.40;;
77168;SDS011;66281;45.114;20.730;2024-03-23T12:27:48;7.05;;;4.25;;
77168;SDS011;66281;45.114;20.730;2024-03-23T12:37:49;6.37;;;4.03;;
77168;SDS011;66281;45.114;20.730;2024-03-23T12:47:50;5.03;;;3.17;;
77168;SDS011;66281;45.114;20.730;2024-03-23T12:57:55;4.25;;;2.63;;
77168;SDS011;66281;45.114;20.730;2024-03-23T13:07:56;3.40;;;2.60;;
77168;SDS011;66281;45.114;20.730;2024-03-23T13:17:57;5.57;;;3.10;;
77168;SDS011;66281;45.114;20.730;2024-03-23T13:27:59;5.57;;;2.53;;
77168;SDS011;66281;45.114;20.730;2024-03-23T13:38:01;6.67;;;3.90;;
77168;SDS011;66281;45.114;20.730;2024-03-23T13:48:03;6.27;;;3.10;;
77168;SDS011;66281;45.114;20.730;2024-03-23T13:58:04;7.43;;;3.60;;
77168;SDS011;66281;45.114;20.730;2024-03-23T14:08:09;6.33;;;3.53;;
77168;SDS011;66281;45.114;20.730;2024-03-23T14:18:10;5.27;;;3.67;;
77168;SDS011;66281;45.114;20.730;2024-03-23T14:28:11;5.05;;;3.78;;
77168;SDS011;66281;45.114;20.730;2024-03-23T14:38:15;74.63;;;45.70;;
77168;SDS011;66281;45.114;20.730;2024-03-23T14:48:17;9.73;;;7.47;;
77168;SDS011;66281;45.114;20.730;2024-03-23T14:58:18;5.50;;;4.95;;
77168;SDS011;66281;45.114;20.730;2024-03-23T15:08:19;9.70;;;3.80;;
77168;SDS011;66281;45.114;20.730;2024-03-23T15:18:20;6.37;;;3.83;;
77168;SDS011;66281;45.114;20.730;2024-03-23T15:28:30;7.30;;;4.13;;
77168;SDS011;66281;45.114;20.730;2024-03-23T15:38:50;6.30;;;3.67;;
77168;SDS011;66281;45.114;20.730;2024-03-23T15:48:51;9.10;;;4.90;;
77168;SDS011;66281;45.114;20.730;2024-03-23T15:58:53;14.18;;;8.38;;
77168;SDS011;66281;45.114;20.730;2024-03-23T16:08:54;6.40;;;4.10;;
77168;SDS011;66281;45.114;20.730;2024-03-23T16:18:55;8.67;;;4.27;;
77168;SDS011;66281;45.114;20.730;2024-03-23T16:28:57;13.05;;;6.55;;
77168;SDS011;66281;45.114;20.730;2024-03-23T16:38:58;17.20;;;7.33;;
77168;SDS011;66281;45.114;20.730;2024-03-23T16:48:59;21.20;;;6.83;;
77168;SDS011;66281;45.114;20.730;2024-03-23T16:59:01;21.02;;;8.10;;
77168;SDS011;66281;45.114;20.730;2024-03-23T17:09:03;112.87;;;52.73;;
77168;SDS011;66281;45.114;20.730;2024-03-23T17:19:05;102.63;;;47.90;;
77168;SDS011;66281;45.114;20.730;2024-03-23T17:29:06;105.20;;;50.50;;
77168;SDS011;66281;45.114;20.730;2024-03-23T17:39:07;100.57;;;48.37;;
77168;SDS011;66281;45.114;20.730;2024-03-23T17:49:10;40.10;;;23.63;;
77168;SDS011;66281;45.114;20.730;2024-03-23T17:59:11;74.72;;;41.90;;
77168;SDS011;66281;45.114;20.730;2024-03-23T18:09:15;39.17;;;25.73;;
77168;SDS011;66281;45.114;20.730;2024-03-23T18:19:17;50.27;;;24.77;;
77168;SDS011;66281;45.114;20.730;2024-03-23T18:29:20;27.83;;;16.30;;
77168;SDS011;66281;45.114;20.730;2024-03-23T18:39:22;27.85;;;17.08;;
77168;SDS011;66281;45.114;20.730;2024-03-23T18:49:23;14.80;;;10.73;;
77168;SDS011;66281;45.114;20.730;2024-03-23T18:59:26;44.07;;;27.93;;
77168;SDS011;66281;45.114;20.730;2024-03-23T19:09:28;42.63;;;22.27;;
77168;SDS011;66281;45.114;20.730;2024-03-23T19:19:29;24.57;;;14.10;;
77168;SDS011;66281;45.114;20.730;2024-03-23T19:29:32;23.63;;;14.10;;
77168;SDS011;66281;45.114;20.730;2024-03-23T19:39:33;17.42;;;10.18;;
77168;SDS011;66281;45.114;20.730;2024-03-23T19:49:36;18.87;;;10.30;;
77168;SDS011;66281;45.114;20.730;2024-03-23T19:59:37;19.70;;;12.07;;
77168;SDS011;66281;45.114;20.730;2024-03-23T20:09:40;13.10;;;7.73;;
77168;SDS011;66281;45.114;20.730;2024-03-23T20:19:42;15.52;;;9.73;;
77168;SDS011;66281;45.114;20.730;2024-03-23T20:29:44;12.67;;;7.27;;
77168;SDS011;66281;45.114;20.730;2024-03-23T20:39:45;40.37;;;14.70;;
77168;SDS011;66281;45.114;20.730;2024-03-23T20:49:46;34.92;;;15.32;;
77168;SDS011;66281;45.114;20.730;2024-03-23T20:59:49;30.77;;;14.20;;
77168;SDS011;66281;45.114;20.730;2024-03-23T21:09:50;28.30;;;17.10;;
77168;SDS011;66281;45.114;20.730;2024-03-23T21:19:51;94.70;;;45.35;;
77168;SDS011;66281;45.114;20.730;2024-03-23T21:29:53;27.57;;;17.53;;
77168;SDS011;66281;45.114;20.730;2024-03-23T21:39:55;25.90;;;14.43;;
77168;SDS011;66281;45.114;20.730;2024-03-23T21:49:56;16.97;;;9.93;;
77168;SDS011;66281;45.114;20.730;2024-03-23T21:59:57;12.93;;;8.18;;
77168;SDS011;66281;45.114;20.730;2024-03-23T22:09:58;35.30;;;15.20;;
77168;SDS011;66281;45.114;20.730;2024-03-23T22:19:59;13.87;;;9.03;;
77168;SDS011;66281;45.114;20.730;2024-03-23T22:30:01;12.45;;;7.50;;
77168;SDS011;66281;45.114;20.730;2024-03-23T22:40:02;13.93;;;9.67;;
77168;SDS011;66281;45.114;20.730;2024-03-23T22:50:04;19.10;;;7.20;;
77168;SDS011;66281;45.114;20.730;2024-03-23T23:00:06;15.65;;;5.93;;
77168;SDS011;66281;45.114;20.730;2024-03-23T23:10:11;8.67;;;3.03;;
77168;SDS011;66281;45.114;20.730;2024-03-23T23:20:12;8.07;;;2.30;;
77168;SDS011;66281;45.114;20.730;2024-03-23T23:30:14;5.57;;;1.60;;
77168;SDS011;66281;45.114;20.730;2024-03-23T23:40:15;6.22;;;1.55;;
77168;SDS011;66281;45.114;20.730;2024-03-23T23:50:16;10.00;;;1.50;;
